createdAt,value
2023-01-29T09:34:33.161Z,0.29
2023-01-29T09:36:35.961Z,0.29
2023-01-29T09:38:38.393Z,-0.05
2023-01-29T09:40:46.847Z,-0.07
2023-01-29T09:42:57.960Z,-0.17
2023-01-29T09:45:21.038Z,0.04
2023-01-29T09:47:26.786Z,0.07
2023-01-29T09:49:34.269Z,0.09
2023-01-29T09:51:50.616Z,0.15
2023-01-29T09:54:29.179Z,0.42
2023-01-29T09:56:32.145Z,0.64
2023-01-29T09:58:37.492Z,0.38
2023-01-29T10:01:17.380Z,0.45
2023-01-29T10:04:15.925Z,0.64
2023-01-29T10:06:23.843Z,0.57
2023-01-29T10:09:14.550Z,0.70
2023-01-29T10:11:35.857Z,0.85
2023-01-29T10:13:57.063Z,0.68
2023-01-29T10:16:11.833Z,0.93
2023-01-29T10:18:33.165Z,0.93
2023-01-29T10:20:51.302Z,0.84
2023-01-29T10:22:59.565Z,0.67
2023-01-29T10:25:06.941Z,0.81
2023-01-29T10:27:17.276Z,1.06
2023-01-29T10:29:22.199Z,1.08
2023-01-29T10:31:36.594Z,1.07
2023-01-29T10:34:01.586Z,0.76
2023-01-29T10:36:10.978Z,1.05
2023-01-29T10:38:33.601Z,0.91
2023-01-29T10:40:47.019Z,0.89
2023-01-29T10:43:14.651Z,0.66
2023-01-29T10:45:48.233Z,0.43
2023-01-29T10:48:15.754Z,0.53
2023-01-29T10:50:23.720Z,0.55
2023-01-29T10:52:44.042Z,0.61
2023-01-29T10:55:11.757Z,0.76
2023-01-29T10:57:44.806Z,0.63
2023-01-29T11:00:05.359Z,0.68
2023-01-29T11:02:19.707Z,0.63
2023-01-29T11:04:22.648Z,0.74
2023-01-29T11:06:29.667Z,0.53
2023-01-29T11:08:38.345Z,0.81
2023-01-29T11:11:13.730Z,0.82
2023-01-29T11:13:17.970Z,0.83
2023-01-29T11:15:32.223Z,1.00
2023-01-29T11:17:34.696Z,0.84
2023-01-29T11:19:43.492Z,0.92
2023-01-29T11:22:01.338Z,1.06
2023-01-29T11:24:17.691Z,0.90
2023-01-29T11:26:24.019Z,0.90
2023-01-29T11:28:40.667Z,0.82
2023-01-29T11:30:43.165Z,0.70
2023-01-29T11:32:51.123Z,0.83
2023-01-29T11:35:01.297Z,0.74
2023-01-29T11:37:11.813Z,0.59
2023-01-29T11:39:19.551Z,0.69
2023-01-29T11:41:24.423Z,0.75
2023-01-29T11:43:26.782Z,0.84
2023-01-29T11:45:32.702Z,0.63
2023-01-29T11:47:35.304Z,0.87
2023-01-29T11:49:40.142Z,0.80
2023-01-29T11:51:42.985Z,0.82
2023-01-29T11:53:52.601Z,0.86
2023-01-29T11:55:56.247Z,0.80
2023-01-29T11:58:16.238Z,0.69
2023-01-29T12:00:50.455Z,0.76
2023-01-29T12:03:02.401Z,0.92
2023-01-29T12:05:07.376Z,0.90
2023-01-29T12:07:16.033Z,0.74
2023-01-29T12:09:24.726Z,0.86
2023-01-29T12:11:35.322Z,0.56
2023-01-29T12:13:40.641Z,0.69
2023-01-29T12:15:43.343Z,0.76
2023-01-29T12:17:53.921Z,1.00
2023-01-29T12:20:11.273Z,0.98
2023-01-29T12:22:34.391Z,1.09
2023-01-29T12:24:44.705Z,0.96
2023-01-29T12:26:59.393Z,1.03
2023-01-29T12:29:25.018Z,1.23
2023-01-29T12:31:46.674Z,0.74
2023-01-29T12:33:55.662Z,1.25
2023-01-29T12:36:11.763Z,1.54
2023-01-29T12:38:21.739Z,1.85
2023-01-29T12:40:29.738Z,2.36
2023-01-29T12:42:32.635Z,2.56
2023-01-29T12:44:45.083Z,2.04
2023-01-29T12:46:55.096Z,2.15
2023-01-29T12:49:01.975Z,2.07
2023-01-29T12:51:25.838Z,3.08
2023-01-29T12:53:35.044Z,2.48
2023-01-29T12:55:43.236Z,1.75
2023-01-29T12:58:10.496Z,1.28
2023-01-29T13:00:24.463Z,1.18
2023-01-29T13:02:48.974Z,1.23
2023-01-29T13:04:59.601Z,2.45
2023-01-29T13:07:15.072Z,2.29
2023-01-29T13:09:23.563Z,1.57
2023-01-29T13:11:33.607Z,2.30
2023-01-29T13:13:53.957Z,3.34
2023-01-29T13:16:01.261Z,4.71
2023-01-29T13:18:31.924Z,5.23
2023-01-29T13:20:36.194Z,5.52
2023-01-29T13:22:44.008Z,5.24
2023-01-29T13:24:58.704Z,4.65
2023-01-29T13:27:07.753Z,3.91
2023-01-29T13:29:22.943Z,2.83
2023-01-29T13:31:39.483Z,2.48
2023-01-29T13:33:45.267Z,1.88
2023-01-29T13:35:58.078Z,1.74
2023-01-29T13:38:00.829Z,1.18
2023-01-29T13:40:06.878Z,1.17
2023-01-29T13:42:42.680Z,1.44
2023-01-29T13:45:02.886Z,1.11
2023-01-29T13:47:11.764Z,0.80
2023-01-29T13:49:30.026Z,0.42
2023-01-29T13:51:36.677Z,0.49
2023-01-29T13:53:42.166Z,0.40
2023-01-29T13:55:45.161Z,0.27
2023-01-29T13:57:47.740Z,0.55
2023-01-29T13:59:55.698Z,0.43
2023-01-29T14:02:04.137Z,0.66
2023-01-29T14:04:19.944Z,0.74
2023-01-29T14:06:43.500Z,0.46
2023-01-29T14:08:47.442Z,0.32
2023-01-29T14:11:14.601Z,0.08
2023-01-29T14:13:18.200Z,0.06
2023-01-29T14:15:30.395Z,0.23
2023-01-29T14:17:34.136Z,0.00
2023-01-29T14:19:36.915Z,0.06
2023-01-29T14:21:40.716Z,-0.12
2023-01-29T14:23:46.922Z,-0.19
2023-01-29T14:25:49.813Z,-0.46
2023-01-29T14:27:52.962Z,-0.46
2023-01-29T14:30:08.229Z,-0.66
2023-01-29T14:32:20.736Z,-0.51
2023-01-29T14:34:49.864Z,-0.48
2023-01-29T14:37:19.449Z,-0.56
2023-01-29T14:39:31.468Z,-0.82
2023-01-29T14:41:36.551Z,-0.80
2023-01-29T14:43:39.976Z,-0.83
2023-01-29T14:45:44.355Z,-0.94
2023-01-29T14:47:47.343Z,-0.75
2023-01-29T14:49:58.863Z,-0.77
2023-01-29T14:52:02.752Z,-0.94
2023-01-29T14:54:25.346Z,-0.98
2023-01-29T14:56:37.307Z,-1.09
2023-01-29T14:58:45.142Z,-1.03
2023-01-29T15:00:53.560Z,-1.04
2023-01-29T15:03:01.970Z,-1.01
2023-01-29T15:05:11.969Z,-0.89
2023-01-29T15:07:53.283Z,-0.93
2023-01-29T15:10:23.238Z,-0.79
2023-01-29T15:12:50.546Z,-0.90
2023-01-29T15:15:08.030Z,-0.95
2023-01-29T15:18:06.640Z,-1.13
2023-01-29T15:20:31.007Z,-1.16
2023-01-29T15:22:44.791Z,-1.22
2023-01-29T15:25:02.638Z,-1.27
2023-01-29T15:27:10.874Z,-1.16
2023-01-29T15:29:25.684Z,-1.07
2023-01-29T15:31:29.475Z,-1.31
2023-01-29T15:33:32.819Z,-1.19
2023-01-29T15:35:38.151Z,-1.36
2023-01-29T15:37:40.705Z,-1.23
2023-01-29T15:39:44.311Z,-1.21
2023-01-29T15:41:48.092Z,-1.23
2023-01-29T15:43:57.501Z,-1.26
2023-01-29T15:46:20.465Z,-1.42
2023-01-29T15:48:32.920Z,-1.38
2023-01-29T15:50:40.263Z,-1.48
2023-01-29T15:52:46.622Z,-1.55
2023-01-29T15:54:51.923Z,-1.63
2023-01-29T15:56:55.022Z,-1.59
2023-01-29T15:59:01.994Z,-1.58
2023-01-29T16:01:07.742Z,-1.67
2023-01-29T16:03:18.242Z,-1.62
2023-01-29T16:05:28.720Z,-1.78
2023-01-29T16:07:33.001Z,-1.73
2023-01-29T16:09:36.055Z,-1.58
2023-01-29T16:11:40.661Z,-1.69
2023-01-29T16:13:47.685Z,-1.65
2023-01-29T16:16:01.270Z,-1.61
2023-01-29T16:18:24.084Z,-1.65
2023-01-29T16:20:45.875Z,-1.64
2023-01-29T16:22:49.398Z,-1.65
2023-01-29T16:24:54.894Z,-1.54
2023-01-29T16:27:08.353Z,-1.63
2023-01-29T16:29:21.977Z,-1.68
2023-01-29T16:31:29.260Z,-1.74
2023-01-29T16:33:39.996Z,-1.76
2023-01-29T16:35:50.887Z,-1.84
2023-01-29T16:38:00.287Z,-1.83
2023-01-29T16:40:35.722Z,-1.91
2023-01-29T16:42:39.223Z,-1.95
2023-01-29T16:45:05.869Z,-1.98
2023-01-29T16:47:25.991Z,-1.98
2023-01-29T16:49:30.806Z,-1.87
2023-01-29T16:51:40.324Z,-1.92
2023-01-29T16:54:19.010Z,-1.99
2023-01-29T16:56:26.259Z,-1.83
2023-01-29T16:58:30.988Z,-1.81
2023-01-29T17:00:35.116Z,-1.88
2023-01-29T17:02:41.710Z,-1.93
2023-01-29T17:04:47.571Z,-1.97
2023-01-29T17:06:57.519Z,-2.11
2023-01-29T17:09:04.338Z,-2.04
2023-01-29T17:11:08.593Z,-2.06
2023-01-29T17:13:25.018Z,-2.17
2023-01-29T17:15:44.049Z,-2.04
2023-01-29T17:17:49.450Z,-2.14
2023-01-29T17:19:52.895Z,-2.24
2023-01-29T17:22:00.310Z,-2.16
2023-01-29T17:24:03.920Z,-2.15
2023-01-29T17:26:10.599Z,-2.20
2023-01-29T17:28:17.662Z,-2.18
2023-01-29T17:30:22.838Z,-2.28
2023-01-29T17:32:44.701Z,-2.24
2023-01-29T17:34:51.750Z,-2.23
2023-01-29T17:36:56.261Z,-2.33
2023-01-29T17:39:01.735Z,-2.27
2023-01-29T17:41:13.172Z,-2.33
2023-01-29T17:43:16.767Z,-2.33
2023-01-29T17:45:20.453Z,-2.48
2023-01-29T17:47:24.722Z,-2.54
2023-01-29T17:49:30.744Z,-2.52
2023-01-29T17:51:36.525Z,-2.51
2023-01-29T17:53:46.227Z,-2.65
2023-01-29T17:55:51.537Z,-2.64
2023-01-29T17:57:59.127Z,-2.58
2023-01-29T18:00:20.983Z,-2.49
2023-01-29T18:02:29.412Z,-2.59
2023-01-29T18:04:34.416Z,-2.58
2023-01-29T18:06:39.882Z,-2.63
2023-01-29T18:08:44.062Z,-2.56
2023-01-29T18:10:47.772Z,-2.62
2023-01-29T18:12:53.431Z,-2.75
2023-01-29T18:15:00.258Z,-2.79
2023-01-29T18:17:04.881Z,-2.82
2023-01-29T18:19:23.325Z,-2.84
2023-01-29T18:21:27.106Z,-2.71
2023-01-29T18:23:31.742Z,-2.70
2023-01-29T18:25:35.666Z,-2.66
2023-01-29T18:27:39.780Z,-2.61
2023-01-29T18:29:43.507Z,-2.62
2023-01-29T18:31:50.147Z,-2.63
2023-01-29T18:33:53.887Z,-2.67
2023-01-29T18:36:01.801Z,-2.56
2023-01-29T18:38:04.816Z,-2.61
2023-01-29T18:40:09.669Z,-2.72
2023-01-29T18:42:13.595Z,-2.73
2023-01-29T18:44:17.054Z,-2.73
2023-01-29T18:46:21.515Z,-2.79
2023-01-29T18:48:25.066Z,-2.86
2023-01-29T18:50:28.896Z,-2.82
2023-01-29T18:52:34.945Z,-2.78
2023-01-29T18:54:38.652Z,-2.82
2023-01-29T18:57:13.827Z,-2.82
2023-01-29T18:59:06.741Z,-2.92
2023-01-29T19:01:12.424Z,-2.85
2023-01-29T19:03:15.894Z,-3.03
2023-01-29T19:05:23.320Z,-3.11
2023-01-29T19:07:26.825Z,-3.10
2023-01-29T19:09:30.221Z,-3.02
2023-01-29T19:11:35.455Z,-3.07
2023-01-29T19:13:39.247Z,-2.89
2023-01-29T19:15:43.904Z,-2.78
2023-01-29T19:17:47.572Z,-2.88
2023-01-29T19:19:51.594Z,-2.90
2023-01-29T19:21:56.631Z,-2.90
2023-01-29T19:24:02.481Z,-2.86
2023-01-29T19:26:08.657Z,-2.77
2023-01-29T19:28:13.263Z,-2.75
2023-01-29T19:30:18.078Z,-2.93
2023-01-29T19:32:22.110Z,-2.91
2023-01-29T19:34:29.353Z,-2.94
2023-01-29T19:36:33.554Z,-3.01
2023-01-29T19:38:39.106Z,-2.93
2023-01-29T19:40:44.575Z,-2.93
2023-01-29T19:42:49.463Z,-2.87
2023-01-29T19:44:53.478Z,-2.85
2023-01-29T19:46:57.063Z,-2.89
2023-01-29T19:49:07.126Z,-2.96
2023-01-29T19:51:11.284Z,-2.79
2023-01-29T19:53:14.919Z,-2.88
2023-01-29T19:55:21.193Z,-2.80
2023-01-29T19:57:26.455Z,-2.75
2023-01-29T19:59:30.670Z,-2.75
2023-01-29T20:01:35.900Z,-2.72
2023-01-29T20:03:46.946Z,-2.72
2023-01-29T20:05:53.703Z,-2.75
2023-01-29T20:07:58.522Z,-2.81
2023-01-29T20:10:02.363Z,-2.99
2023-01-29T20:12:05.559Z,-2.99
2023-01-29T20:14:11.593Z,-3.02
2023-01-29T20:16:16.338Z,-2.96
2023-01-29T20:18:20.038Z,-2.96
2023-01-29T20:20:23.891Z,-2.88
2023-01-29T20:22:33.528Z,-2.94
2023-01-29T20:24:39.725Z,-2.95
2023-01-29T20:26:44.878Z,-3.05
2023-01-29T20:28:49.775Z,-3.07
2023-01-29T20:30:58.457Z,-3.09
2023-01-29T20:33:03.387Z,-3.00
2023-01-29T20:35:08.224Z,-3.06
2023-01-29T20:37:12.609Z,-2.90
2023-01-29T20:39:17.202Z,-2.85
2023-01-29T20:41:21.757Z,-2.95
2023-01-29T20:43:25.312Z,-2.99
2023-01-29T20:45:29.100Z,-3.12
2023-01-29T20:47:33.399Z,-2.94
2023-01-29T20:49:37.242Z,-3.08
2023-01-29T20:51:42.251Z,-3.04
2023-01-29T20:53:48.596Z,-3.16
2023-01-29T20:55:52.081Z,-3.22
2023-01-29T20:58:06.332Z,-3.19
2023-01-29T21:00:12.546Z,-3.12
2023-01-29T21:02:17.354Z,-3.17
2023-01-29T21:04:22.350Z,-3.12
2023-01-29T21:06:26.487Z,-3.10
2023-01-29T21:08:32.554Z,-3.12
2023-01-29T21:10:37.415Z,-3.13
2023-01-29T21:12:41.675Z,-3.18
2023-01-29T21:14:47.746Z,-3.20
2023-01-29T21:16:50.990Z,-3.29
2023-01-29T21:18:59.377Z,-3.24
2023-01-29T21:21:03.088Z,-3.26
2023-01-29T21:23:07.392Z,-3.25
2023-01-29T21:25:11.721Z,-3.29
2023-01-29T21:27:14.901Z,-3.24
2023-01-29T21:29:20.809Z,-3.21
2023-01-29T21:31:23.912Z,-3.27
2023-01-29T21:33:26.883Z,-3.09
2023-01-29T21:35:29.503Z,-3.13
2023-01-29T21:37:36.871Z,-3.23
2023-01-29T21:39:39.851Z,-3.27
2023-01-29T21:42:11.055Z,-3.32
2023-01-29T21:44:14.160Z,-3.29
2023-01-29T21:46:16.649Z,-3.22
2023-01-29T21:48:19.348Z,-3.42
2023-01-29T21:50:22.323Z,-3.49
2023-01-29T21:52:25.024Z,-3.41
2023-01-29T21:54:31.321Z,-3.43
2023-01-29T21:56:34.037Z,-3.33
2023-01-29T21:58:36.545Z,-3.30
2023-01-29T22:00:39.259Z,-3.25
2023-01-29T22:02:42.146Z,-3.34
2023-01-29T22:04:44.961Z,-3.32
2023-01-29T22:06:47.371Z,-3.25
2023-01-29T22:08:50.453Z,-3.26
2023-01-29T22:10:53.167Z,-3.34
2023-01-29T22:12:55.863Z,-3.32
2023-01-29T22:14:58.531Z,-3.35
2023-01-29T22:17:01.021Z,-3.33
2023-01-29T22:19:03.585Z,-3.33
2023-01-29T22:21:06.304Z,-3.21
2023-01-29T22:23:08.629Z,-3.17
2023-01-29T22:25:11.333Z,-3.08
2023-01-29T22:27:14.881Z,-3.15
2023-01-29T22:29:18.009Z,-3.15
2023-01-29T22:31:20.318Z,-3.12
2023-01-29T22:33:22.992Z,-2.98
2023-01-29T22:35:25.358Z,-2.98
2023-01-29T22:37:27.832Z,-3.17
2023-01-29T22:39:30.454Z,-3.12
2023-01-29T22:41:33.752Z,-3.15
2023-01-29T22:43:36.167Z,-3.18
2023-01-29T22:45:39.671Z,-3.24
2023-01-29T22:47:42.073Z,-3.27
